Time;durP1;ratioP1;P1;durP2;ratioP2;P2;SDS_P1;SDS_P2;PMS_P1;PMS_P2;Temp;Humidity;BMP_temperature;BMP_pressure;BME280_temperature;BME280_humidity;BME280_pressure;Samples;Min_cycle;Max_cycle;Signal;HPM_P1;HPM_P2
2023/02/10 00:01:42;;;;;;;33.80;14.07;;;;;;;-10.81;62.57;103357.08;1855904;77;21042;-48
2023/02/10 00:04:12;;;;;;;25.00;9.08;;;;;;;-10.91;62.76;103352.82;1855764;77;21182;-46
2023/02/10 00:06:41;;;;;;;18.42;9.60;;;;;;;-10.97;62.88;103349.73;1854576;76;21607;-45
2023/02/10 00:09:17;;;;;;;22.77;8.65;;;;;;;-10.96;62.96;103351.89;1853947;77;21102;-45
2023/02/10 00:12:03;;;;;;;19.90;8.50;;;;;;;-10.92;62.88;103356.14;1842093;76;21041;-46
2023/02/10 00:14:30;;;;;;;25.43;10.93;;;;;;;-10.91;62.73;103352.82;1870484;77;21008;-46
2023/02/10 00:16:59;;;;;;;26.37;9.98;;;;;;;-10.90;62.65;103344.80;1858533;77;21177;-47
2023/02/10 00:19:30;;;;;;;22.32;9.08;;;;;;;-10.91;62.54;103347.73;1841438;78;21082;-48
2023/02/10 00:22:00;;;;;;;11.15;4.58;;;;;;;-11.00;62.51;103343.47;1853881;77;21043;-48
2023/02/10 00:24:29;;;;;;;16.35;3.90;;;;;;;-11.10;62.66;103343.00;1872691;77;21130;-50
2023/02/10 00:26:58;;;;;;;6.22;3.60;;;;;;;-11.08;62.67;103355.51;1872724;77;21024;-44
2023/02/10 00:29:28;;;;;;;19.23;8.10;;;;;;;-11.10;62.54;103344.27;1863823;77;21086;-47
2023/02/10 00:31:56;;;;;;;27.85;9.48;;;;;;;-11.10;62.48;103348.08;1872630;77;21432;-54
2023/02/10 00:34:25;;;;;;;28.40;11.38;;;;;;;-11.10;62.42;103351.55;1855585;77;21129;-52
2023/02/10 00:36:54;;;;;;;10.55;6.22;;;;;;;-11.16;62.46;103352.23;1841578;78;21094;-46
2023/02/10 00:39:22;;;;;;;23.83;8.63;;;;;;;-11.27;62.46;103344.92;1841670;78;21046;-49
2023/02/10 00:41:51;;;;;;;7.10;3.02;;;;;;;-11.40;62.58;103339.45;1841602;78;21030;-48
2023/02/10 00:44:20;;;;;;;15.50;8.18;;;;;;;-11.48;62.75;103334.05;1841582;78;21046;-49
2023/02/10 00:46:49;;;;;;;23.98;8.33;;;;;;;-11.53;62.74;103337.42;1875549;76;21533;-49
2023/02/10 00:49:18;;;;;;;14.05;6.92;;;;;;;-11.63;62.88;103335.19;1850384;77;21492;-50
2023/02/10 00:51:46;;;;;;;23.07;9.33;;;;;;;-11.71;63.15;103325.20;1867904;76;21027;-46
2023/02/10 00:54:15;;;;;;;5.85;2.55;;;;;;;-11.73;63.27;103341.04;1882169;76;21057;-49
2023/02/10 00:56:45;;;;;;;12.90;6.03;;;;;;;-11.75;63.28;103343.81;1882002;76;21090;-47
2023/02/10 00:59:15;;;;;;;6.05;3.22;;;;;;;-11.72;63.12;103337.38;1882152;76;21519;-49
2023/02/10 01:01:44;;;;;;;6.80;3.80;;;;;;;-11.69;62.91;103331.67;1882168;76;21074;-46
2023/02/10 01:04:12;;;;;;;9.08;6.05;;;;;;;-11.67;62.76;103328.54;1882137;76;21080;-47
2023/02/10 01:06:41;;;;;;;13.35;8.00;;;;;;;-11.63;62.68;103328.45;1882172;76;21010;-47
2023/02/10 01:09:10;;;;;;;20.00;8.25;;;;;;;-11.61;62.65;103325.66;1882309;76;21078;-49
2023/02/10 01:11:39;;;;;;;20.20;7.90;;;;;;;-11.62;62.83;103319.16;1852867;76;21045;-49
2023/02/10 01:14:07;;;;;;;8.05;4.05;;;;;;;-11.61;62.93;103314.61;1850373;77;21146;-49
2023/02/10 01:16:36;;;;;;;8.90;5.85;;;;;;;-11.58;62.95;103322.14;1849968;77;21132;-50
2023/02/10 01:19:05;;;;;;;5.83;4.05;;;;;;;-11.57;62.84;103316.67;1849209;77;21050;-50
2023/02/10 01:21:36;;;;;;;15.32;6.40;;;;;;;-11.55;62.74;103316.05;1848968;77;21112;-50
2023/02/10 01:24:06;;;;;;;12.93;6.20;;;;;;;-11.54;62.67;103312.77;1848827;77;21575;-50
2023/02/10 01:26:35;;;;;;;9.05;3.67;;;;;;;-11.55;62.52;103307.16;1848905;77;21525;-52
2023/02/10 01:29:04;;;;;;;10.05;4.92;;;;;;;-11.55;62.41;103313.89;1849021;76;21011;-46
2023/02/10 01:31:32;;;;;;;26.23;10.25;;;;;;;-11.59;62.35;103313.10;1878368;76;21125;-48
2023/02/10 01:34:01;;;;;;;35.52;10.75;;;;;;;-11.67;62.31;103312.02;1874297;76;21113;-47
2023/02/10 01:36:30;;;;;;;9.53;5.12;;;;;;;-11.78;62.29;103305.05;1867914;75;21090;-47
2023/02/10 01:38:58;;;;;;;11.70;5.37;;;;;;;-11.87;62.28;103311.44;1862127;77;21110;-47
2023/02/10 01:41:27;;;;;;;16.25;4.60;;;;;;;-11.91;62.40;103313.59;1836814;78;21574;-46
2023/02/10 01:44:05;;;;;;;23.35;7.00;;;;;;;-11.94;62.42;103306.95;1836824;78;21055;-45
2023/02/10 01:46:35;;;;;;;6.03;3.92;;;;;;;-12.14;62.61;103292.38;1836846;78;21122;-50
2023/02/10 01:49:10;;;;;;;13.18;6.53;;;;;;;-12.16;62.71;103292.22;1866610;77;21505;-56
2023/02/10 01:51:47;;;;;;;13.05;6.15;;;;;;;-12.15;62.76;103299.11;1867110;77;21136;-48
2023/02/10 01:54:19;;;;;;;13.62;6.47;;;;;;;-12.12;62.76;103290.48;1867292;77;21047;-53
2023/02/10 01:56:48;;;;;;;22.60;7.60;;;;;;;-12.07;62.67;103290.55;1865943;76;21144;-53
2023/02/10 01:59:18;;;;;;;13.78;6.25;;;;;;;-12.11;62.65;103291.02;1865835;77;21492;-50
2023/02/10 02:01:47;;;;;;;14.75;6.60;;;;;;;-12.11;62.52;103288.47;1865275;77;22172;-51
2023/02/10 02:04:16;;;;;;;28.07;7.20;;;;;;;-12.10;62.58;103285.16;1866773;77;21250;-50
2023/02/10 02:06:45;;;;;;;7.30;4.28;;;;;;;-12.08;62.58;103284.05;1866426;77;21050;-51
2023/02/10 02:09:14;;;;;;;16.95;5.97;;;;;;;-12.08;62.58;103278.61;1865648;77;21050;-48
2023/02/10 02:12:02;;;;;;;12.30;5.80;;;;;;;-12.07;62.47;103288.39;1860286;77;21094;-47
2023/02/10 02:14:38;;;;;;;19.10;6.87;;;;;;;-12.12;62.49;103286.67;1835894;77;21179;-49
2023/02/10 02:17:15;;;;;;;17.17;7.50;;;;;;;-12.14;62.47;103281.83;1860697;77;21128;-52
2023/02/10 02:23:24;;;;;;;20.48;6.30;;;;;;;-12.17;62.31;103275.21;1867836;77;21031;-53
2023/02/10 02:26:22;;;;;;;24.50;7.42;;;;;;;-12.26;62.18;103277.77;1867264;77;21160;-53
2023/02/10 02:29:16;;;;;;;12.33;5.15;;;;;;;-12.34;62.22;103282.88;1858374;77;21547;-54
2023/02/10 02:31:53;;;;;;;20.23;10.20;;;;;;;-12.38;62.23;103275.72;1868041;77;21046;-52
2023/02/10 02:34:37;;;;;;;14.58;7.05;;;;;;;-12.39;62.29;103271.38;1864951;76;21010;-50
2023/02/10 02:37:17;;;;;;;23.67;8.88;;;;;;;-12.42;62.32;103271.99;1872321;75;21091;-51
2023/02/10 02:39:55;;;;;;;18.55;8.45;;;;;;;-12.41;62.21;103268.72;1872798;77;21040;-49
2023/02/10 02:42:29;;;;;;;23.92;8.75;;;;;;;-12.44;62.25;103264.23;1867550;77;21115;-52
2023/02/10 02:45:10;;;;;;;16.70;7.40;;;;;;;-12.44;62.26;103268.03;1857678;77;21059;-51
2023/02/10 02:47:44;;;;;;;20.77;7.30;;;;;;;-12.39;62.31;103268.84;1850114;77;21447;-48
2023/02/10 02:50:25;;;;;;;18.82;7.78;;;;;;;-12.38;62.33;103260.48;1872834;76;21060;-51
2023/02/10 02:53:20;;;;;;;21.75;7.97;;;;;;;-12.39;62.35;103259.95;1846064;77;21436;-51
2023/02/10 02:55:52;;;;;;;;;;;;;;;-12.41;62.43;103256.38;1844349;77;21571;-49
2023/02/10 02:58:36;;;;;;;20.48;7.95;;;;;;;-12.38;62.27;103256.30;1841731;78;20181;-48
2023/02/10 03:01:07;;;;;;;13.98;6.67;;;;;;;-12.47;62.19;103260.50;1842556;77;21554;-49
2023/02/10 03:03:37;;;;;;;25.30;8.03;;;;;;;-12.50;62.22;103253.50;1846520;77;21129;-48
2023/02/10 03:06:07;;;;;;;17.48;7.35;;;;;;;-12.49;62.39;103250.20;1850128;76;21122;-50
2023/02/10 03:08:39;;;;;;;32.10;9.08;;;;;;;-12.45;62.35;103245.95;1872727;77;21036;-49
2023/02/10 03:11:08;;;;;;;21.57;7.55;;;;;;;-12.42;62.28;103251.69;1852699;77;21585;-47
2023/02/10 03:13:37;;;;;;;32.55;11.95;;;;;;;-12.40;62.29;103251.45;1852997;76;21032;-50
2023/02/10 03:16:06;;;;;;;13.65;6.00;;;;;;;-12.40;62.28;103246.76;1852508;77;21087;-47
2023/02/10 03:18:35;;;;;;;3.85;2.92;;;;;;;-12.46;62.21;103253.04;1853646;77;21040;-49
2023/02/10 03:21:03;;;;;;;25.68;7.92;;;;;;;-12.51;62.24;103259.70;1852426;77;21127;-48
2023/02/10 03:23:32;;;;;;;31.77;11.00;;;;;;;-12.60;62.31;103255.02;1842105;77;21224;-48
2023/02/10 03:26:03;;;;;;;40.15;12.78;;;;;;;-12.82;62.65;103241.19;1850617;77;21130;-48
2023/02/10 03:28:31;;;;;;;44.25;14.20;;;;;;;-12.89;62.90;103240.08;1855812;77;21213;-49
2023/02/10 03:31:05;;;;;;;26.57;9.67;;;;;;;-12.94;62.95;103246.73;1837018;77;21036;-50
2023/02/10 03:33:34;;;;;;;26.93;6.62;;;;;;;-13.04;63.01;103247.11;1860737;77;21256;-50
2023/02/10 03:36:03;;;;;;;7.08;5.90;;;;;;;-13.08;63.07;103251.72;1840017;75;21166;-50
2023/02/10 03:38:32;;;;;;;24.37;9.20;;;;;;;-13.01;63.05;103255.38;1861419;77;21467;-46
2023/02/10 03:41:00;;;;;;;28.87;9.70;;;;;;;-12.91;62.98;103259.69;1840252;76;21522;-47
2023/02/10 03:43:29;;;;;;;21.87;9.77;;;;;;;-12.84;62.90;103260.80;1849795;77;21095;-49
2023/02/10 03:46:02;;;;;;;29.77;9.43;;;;;;;-12.82;62.94;103258.95;1839940;77;21185;-50
2023/02/10 03:48:31;;;;;;;15.28;8.15;;;;;;;-12.75;62.99;103251.92;1861826;77;21252;-51
2023/02/10 03:51:01;;;;;;;24.85;10.00;;;;;;;-12.70;62.86;103257.06;1840208;77;21024;-61
2023/02/10 03:53:31;;;;;;;29.18;10.98;;;;;;;-12.64;62.77;103255.10;1857367;76;21044;-61
2023/02/10 03:56:00;;;;;;;21.02;9.20;;;;;;;-12.62;62.69;103253.22;1849733;77;22024;-61
2023/02/10 03:58:29;;;;;;;18.25;7.90;;;;;;;-12.60;62.62;103263.52;1859862;77;21922;-61
2023/02/10 04:00:58;;;;;;;15.80;5.78;;;;;;;-12.58;62.53;103265.83;1858966;77;21039;-61
2023/02/10 04:03:26;;;;;;;26.80;11.28;;;;;;;-12.64;62.48;103262.72;1859521;77;21138;-61
2023/02/10 04:05:55;;;;;;;21.30;9.03;;;;;;;-12.80;62.53;103254.38;1843748;77;21577;-61
2023/02/10 04:08:25;;;;;;;21.45;8.25;;;;;;;-12.92;62.67;103256.27;1861892;75;21224;-60
2023/02/10 04:10:53;;;;;;;23.20;9.80;;;;;;;-13.04;62.81;103258.88;1853574;77;21091;-61
2023/02/10 04:13:22;;;;;;;13.58;8.53;;;;;;;-13.06;62.82;103269.24;1846519;76;21156;-47
2023/02/10 04:15:52;;;;;;;20.20;8.60;;;;;;;-13.19;62.88;103263.35;1850462;77;21043;-50
2023/02/10 04:18:20;;;;;;;27.35;10.58;;;;;;;-13.24;63.00;103274.33;1861055;76;21142;-49
2023/02/10 04:20:51;;;;;;;20.17;9.95;;;;;;;-13.25;63.00;103273.80;1852359;77;21178;-48
2023/02/10 04:23:19;;;;;;;7.10;3.17;;;;;;;-13.26;63.07;103273.29;1861888;77;21115;-46
2023/02/10 04:25:48;;;;;;;23.47;10.60;;;;;;;-13.19;63.03;103275.14;1853691;76;21122;-50
2023/02/10 04:28:17;;;;;;;27.45;9.93;;;;;;;-13.11;62.89;103290.72;1855732;77;21201;-49
2023/02/10 04:30:46;;;;;;;24.00;9.30;;;;;;;-13.15;62.86;103288.25;1849111;77;21229;-48
2023/02/10 04:33:14;;;;;;;28.10;8.30;;;;;;;-13.27;63.19;103286.69;1838428;77;21107;-46
2023/02/10 04:35:44;;;;;;;23.87;9.00;;;;;;;-13.29;63.45;103289.84;1833444;77;21486;-48
2023/02/10 04:38:12;;;;;;;31.52;10.70;;;;;;;-13.19;63.38;103285.28;1842837;76;21087;-48
2023/02/10 04:40:42;;;;;;;41.37;15.60;;;;;;;-13.11;63.24;103283.11;1841618;78;21035;-49
2023/02/10 04:43:13;;;;;;;26.70;7.73;;;;;;;-13.09;63.23;103288.88;1841767;76;21153;-47
2023/02/10 04:45:41;;;;;;;18.87;8.10;;;;;;;-13.02;63.16;103296.34;1841873;76;21529;-50
2023/02/10 04:48:10;;;;;;;18.97;9.03;;;;;;;-12.96;63.10;103296.04;1848609;76;21098;-49
2023/02/10 04:50:39;;;;;;;24.47;10.33;;;;;;;-13.00;63.20;103292.69;1875387;76;21055;-47
2023/02/10 04:53:08;;;;;;;22.93;7.87;;;;;;;-13.08;63.24;103286.84;1881870;76;21113;-48
2023/02/10 04:55:36;;;;;;;27.58;9.55;;;;;;;-13.04;63.18;103296.91;1852076;76;21047;-47
2023/02/10 04:58:06;;;;;;;31.05;10.03;;;;;;;-13.04;63.13;103301.98;1844495;76;21098;-48
2023/02/10 05:00:35;;;;;;;19.57;9.20;;;;;;;-13.00;63.04;103302.84;1881643;76;21486;-45
2023/02/10 05:03:04;;;;;;;13.32;6.95;;;;;;;-12.91;63.03;103310.42;1859313;76;21038;-45
2023/02/10 05:05:32;;;;;;;24.13;9.10;;;;;;;-12.79;63.07;103306.93;1843430;76;21047;-47
2023/02/10 05:08:01;;;;;;;27.32;10.75;;;;;;;-12.63;63.07;103300.05;1881891;75;21035;-48
2023/02/10 05:10:29;;;;;;;30.12;10.95;;;;;;;-12.45;62.98;103300.89;1878026;76;21090;-45
2023/02/10 05:12:58;;;;;;;22.35;9.33;;;;;;;-12.31;62.79;103311.10;1873294;76;21035;-46
2023/02/10 05:15:27;;;;;;;29.25;6.67;;;;;;;-12.18;62.70;103309.34;1881889;76;21087;-49
2023/02/10 05:17:55;;;;;;;17.48;8.80;;;;;;;-12.02;62.68;103314.20;1862750;76;21122;-50
2023/02/10 05:20:24;;;;;;;14.15;7.75;;;;;;;-11.90;62.66;103314.09;1853576;76;21120;-50
2023/02/10 05:22:53;;;;;;;14.98;6.37;;;;;;;-11.82;62.48;103319.50;1881426;76;21016;-49
2023/02/10 05:25:21;;;;;;;22.82;10.53;;;;;;;-11.81;62.32;103314.92;1882151;76;21032;-46
2023/02/10 05:27:50;;;;;;;9.85;6.25;;;;;;;-11.74;62.28;103317.28;1881193;75;21048;-48
2023/02/10 05:30:19;;;;;;;10.50;4.47;;;;;;;-11.67;62.28;103326.00;1880056;76;21039;-47
2023/02/10 05:32:47;;;;;;;7.15;3.50;;;;;;;-11.53;62.23;103325.09;1857064;76;21154;-49
2023/02/10 05:35:16;;;;;;;2.60;2.08;;;;;;;-11.37;62.20;103320.66;1882104;76;21043;-47
2023/02/10 05:37:45;;;;;;;13.00;6.85;;;;;;;-11.16;62.14;103326.80;1884217;76;21161;-47
2023/02/10 05:40:13;;;;;;;24.92;8.73;;;;;;;-10.92;62.09;103327.23;1891530;76;21004;-46
2023/02/10 05:42:42;;;;;;;13.68;6.55;;;;;;;-10.71;62.16;103318.97;1887383;76;21535;-50
2023/02/10 05:45:11;;;;;;;13.50;4.55;;;;;;;-10.55;62.08;103319.96;1862577;76;21139;-49
2023/02/10 05:47:39;;;;;;;12.25;6.10;;;;;;;-10.49;61.86;103315.39;1860125;76;21051;-45
2023/02/10 05:50:09;;;;;;;19.37;6.90;;;;;;;-10.56;61.54;103311.80;1859952;76;21054;-48
2023/02/10 05:52:37;;;;;;;6.95;2.85;;;;;;;-10.59;61.47;103312.78;1861940;76;21473;-50
2023/02/10 05:55:06;;;;;;;33.50;8.73;;;;;;;-10.58;61.47;103314.97;1876847;76;21071;-47
2023/02/10 05:57:35;;;;;;;8.65;6.12;;;;;;;-10.51;61.56;103313.09;1891186;76;21548;-49
2023/02/10 06:00:06;;;;;;;21.05;7.42;;;;;;;-10.36;61.67;103310.11;1891248;76;21132;-51
2023/02/10 06:02:36;;;;;;;9.50;3.55;;;;;;;-10.23;61.77;103312.04;1867380;75;21109;-52
2023/02/10 06:05:05;;;;;;;16.55;8.25;;;;;;;-10.17;61.79;103313.44;1886786;76;21114;-46
2023/02/10 06:07:34;;;;;;;12.30;6.87;;;;;;;-10.01;61.85;103309.66;1862603;76;21501;-43
2023/02/10 06:10:02;;;;;;;9.60;4.20;;;;;;;-9.82;61.76;103312.15;1876017;76;21055;-44
2023/02/10 06:12:31;;;;;;;6.62;5.72;;;;;;;-9.69;61.54;103308.98;1874845;76;21051;-44
2023/02/10 06:14:59;;;;;;;24.87;8.93;;;;;;;-9.56;61.50;103311.80;1875142;76;21063;-48
2023/02/10 06:17:28;;;;;;;28.92;7.10;;;;;;;-9.40;61.46;103312.71;1870187;76;21180;-47
2023/02/10 06:19:57;;;;;;;7.55;6.03;;;;;;;-9.28;61.36;103312.44;1862965;76;21042;-46
2023/02/10 06:22:25;;;;;;;7.58;5.05;;;;;;;-9.27;61.18;103304.42;1868846;76;21152;-46
2023/02/10 06:24:54;;;;;;;14.90;6.78;;;;;;;-9.21;61.18;103306.19;1891463;76;21047;-45
2023/02/10 06:27:23;;;;;;;8.63;5.87;;;;;;;-9.16;61.01;103304.92;1864808;76;21054;-44
2023/02/10 06:29:51;;;;;;;14.75;5.95;;;;;;;-9.14;61.07;103304.27;1891220;76;21040;-44
2023/02/10 06:32:20;;;;;;;15.00;8.53;;;;;;;-8.99;61.17;103306.30;1884481;76;21126;-46
2023/02/10 06:34:48;;;;;;;18.05;8.88;;;;;;;-8.87;61.15;103306.39;1868583;76;21548;-44
2023/02/10 06:37:17;;;;;;;4.55;4.03;;;;;;;-8.82;61.03;103307.66;1891213;76;21047;-45
2023/02/10 06:39:45;;;;;;;16.60;6.58;;;;;;;-8.77;60.96;103307.27;1876377;75;21119;-45
2023/02/10 06:42:14;;;;;;;22.87;11.08;;;;;;;-8.61;61.11;103305.94;1869856;77;21039;-47
2023/02/10 06:44:43;;;;;;;27.20;12.47;;;;;;;-8.38;61.16;103311.59;1870871;76;21569;-44
2023/02/10 06:47:12;;;;;;;19.48;8.03;;;;;;;-8.28;61.32;103310.28;1832768;77;21052;-46
2023/02/10 06:49:41;;;;;;;15.98;6.35;;;;;;;-8.16;61.27;103315.06;1832716;77;21080;-45
2023/02/10 06:52:09;;;;;;;50.17;18.02;;;;;;;-8.06;61.25;103315.42;1835537;77;21133;-49
2023/02/10 06:54:38;;;;;;;7.60;4.60;;;;;;;-8.00;61.05;103318.44;1832579;78;21046;-46
2023/02/10 06:57:07;;;;;;;15.55;7.40;;;;;;;-8.03;61.28;103317.31;1838111;77;21052;-47
2023/02/10 06:59:35;;;;;;;30.90;14.05;;;;;;;-7.96;61.42;103314.46;1872196;77;21343;-46
2023/02/10 07:02:04;;;;;;;35.25;12.98;;;;;;;-7.77;61.36;103318.05;1869983;77;21028;-48
2023/02/10 07:04:33;;;;;;;25.30;11.08;;;;;;;-7.73;61.55;103313.66;1855038;77;21044;-48
2023/02/10 07:07:02;;;;;;;30.75;11.55;;;;;;;-7.61;61.60;103309.89;1838918;77;21126;-47
2023/02/10 07:09:30;;;;;;;33.90;10.75;;;;;;;-7.37;61.49;103310.86;1872472;76;21047;-45
2023/02/10 07:11:59;;;;;;;32.83;13.60;;;;;;;-7.26;60.95;103312.95;1864333;77;21015;-45
2023/02/10 07:14:28;;;;;;;25.08;9.65;;;;;;;-7.33;60.77;103314.15;1868065;77;21106;-49
2023/02/10 07:16:56;;;;;;;25.30;11.78;;;;;;;-7.40;61.19;103321.74;1853343;77;21091;-52
2023/02/10 07:19:26;;;;;;;32.00;12.73;;;;;;;-7.33;61.34;103314.55;1858981;77;21075;-49
2023/02/10 07:21:54;;;;;;;23.70;9.78;;;;;;;-7.15;61.20;103310.80;1872087;77;21145;-50
2023/02/10 07:24:23;;;;;;;30.25;12.98;;;;;;;-7.07;61.46;103320.33;1869965;76;21004;-49
2023/02/10 07:26:51;;;;;;;11.73;7.85;;;;;;;-6.97;61.24;103327.94;1844261;77;21100;-47
2023/02/10 07:29:20;;;;;;;36.85;12.63;;;;;;;-6.92;60.86;103316.73;1872702;77;21097;-50
2023/02/10 07:31:49;;;;;;;27.87;8.78;;;;;;;-6.82;60.73;103315.36;1869639;76;21439;-47
2023/02/10 07:34:20;;;;;;;27.10;12.35;;;;;;;-6.82;60.80;103323.93;1847547;77;21063;-46
2023/02/10 07:36:53;;;;;;;3.67;3.37;;;;;;;-6.79;60.78;103314.28;1870076;77;21020;-45
2023/02/10 07:39:20;;;;;;;16.57;8.05;;;;;;;-6.77;60.97;103314.00;1837087;76;21284;-48
2023/02/10 07:41:49;;;;;;;28.12;11.05;;;;;;;-6.66;60.91;103316.98;1841832;76;21482;-50
2023/02/10 07:44:23;;;;;;;33.85;10.30;;;;;;;-6.62;60.70;103308.73;1862714;76;21116;-48
2023/02/10 07:46:55;;;;;;;24.98;10.35;;;;;;;-6.65;60.86;103320.43;1878209;75;20999;-45
2023/02/10 07:49:24;;;;;;;15.35;8.78;;;;;;;-6.65;61.13;103316.19;1856745;76;21025;-47
2023/02/10 07:51:53;;;;;;;5.53;4.60;;;;;;;-6.55;61.04;103315.58;1846949;76;21642;-47
2023/02/10 07:54:22;;;;;;;33.55;12.78;;;;;;;-6.42;60.93;103310.54;1873785;76;21055;-48
2023/02/10 07:56:50;;;;;;;20.77;7.05;;;;;;;-6.29;60.89;103307.18;1880418;76;21109;-45
2023/02/10 07:59:19;;;;;;;33.60;12.53;;;;;;;-6.25;60.76;103302.39;1881681;76;21126;-48
2023/02/10 08:01:47;;;;;;;40.25;14.00;;;;;;;-6.21;60.76;103304.39;1881516;76;21568;-48
2023/02/10 08:04:16;;;;;;;28.77;10.20;;;;;;;-6.14;60.74;103302.24;1881817;76;21012;-46
2023/02/10 08:06:45;;;;;;;24.98;10.95;;;;;;;-6.07;60.63;103310.87;1881800;76;21024;-47
2023/02/10 08:09:17;;;;;;;23.15;8.58;;;;;;;-6.11;60.52;103303.75;1869326;76;21085;-49
2023/02/10 08:11:44;;;;;;;42.05;16.48;;;;;;;-6.06;60.53;103308.82;1881329;75;21040;-51
2023/02/10 08:14:12;;;;;;;46.75;13.05;;;;;;;-5.99;60.63;103309.75;1870132;76;21015;-48
2023/02/10 08:16:41;;;;;;;26.27;10.20;;;;;;;-5.80;60.56;103323.83;1841812;76;21155;-53
2023/02/10 08:19:09;;;;;;;35.52;12.58;;;;;;;-5.65;60.35;103319.74;1878884;76;21044;-46
2023/02/10 08:21:38;;;;;;;29.98;12.00;;;;;;;-5.56;60.30;103312.67;1874970;76;21105;-47
2023/02/10 08:24:07;;;;;;;20.50;9.63;;;;;;;-5.56;60.73;103315.23;1882120;76;21075;-49
2023/02/10 08:26:35;;;;;;;26.73;8.43;;;;;;;-5.53;60.73;103316.74;1880289;75;21076;-49
2023/02/10 08:29:04;;;;;;;22.52;10.48;;;;;;;-5.46;60.83;103317.66;1850446;77;21127;-47
2023/02/10 08:31:33;;;;;;;36.15;10.70;;;;;;;-5.34;60.85;103320.16;1850367;77;21067;-49
2023/02/10 08:34:01;;;;;;;22.40;10.60;;;;;;;-5.32;60.92;103321.14;1850401;77;21057;-46
2023/02/10 08:36:30;;;;;;;17.62;9.33;;;;;;;-5.26;60.77;103321.95;1850477;77;21511;-46
2023/02/10 08:38:59;;;;;;;20.65;8.60;;;;;;;-5.14;60.54;103318.05;1855246;76;21110;-50
2023/02/10 08:41:30;;;;;;;25.15;9.70;;;;;;;-5.05;60.55;103318.25;1890201;75;21086;-47
2023/02/10 08:43:58;;;;;;;33.88;12.78;;;;;;;-4.98;60.51;103318.65;1891333;76;21039;-46
2023/02/10 08:46:27;;;;;;;33.45;14.03;;;;;;;-4.84;60.37;103316.59;1891487;76;21138;-48
2023/02/10 08:48:55;;;;;;;14.87;8.13;;;;;;;-4.69;60.15;103307.30;1891432;75;21011;-49
2023/02/10 08:51:24;;;;;;;5.90;3.12;;;;;;;-4.54;59.79;103307.80;1891424;76;21113;-50
2023/02/10 08:53:53;;;;;;;40.50;13.62;;;;;;;-4.51;59.53;103305.44;1891389;76;21133;-50
2023/02/10 08:56:22;;;;;;;43.02;14.87;;;;;;;-4.37;59.60;103296.92;1891642;75;21020;-47
2023/02/10 08:58:51;;;;;;;33.30;12.43;;;;;;;-4.19;59.87;103295.00;1891279;76;21663;-49
2023/02/10 09:01:23;;;;;;;23.25;8.03;;;;;;;-4.10;59.90;103287.85;1891546;76;21023;-46
2023/02/10 09:03:51;;;;;;;38.92;15.60;;;;;;;-4.15;59.43;103278.95;1891368;76;21039;-47
2023/02/10 09:06:23;;;;;;;22.82;8.33;;;;;;;-4.22;59.25;103283.22;1891355;76;21560;-45
2023/02/10 09:08:53;;;;;;;25.45;13.10;;;;;;;-4.23;59.24;103272.45;1890819;75;21016;-47
2023/02/10 09:11:23;;;;;;;29.92;13.08;;;;;;;-4.22;59.22;103262.64;1891284;76;21638;-45
2023/02/10 09:13:53;;;;;;;29.35;13.95;;;;;;;-3.99;59.38;103258.52;1891457;76;21011;-46
2023/02/10 09:16:21;;;;;;;37.03;14.13;;;;;;;-3.82;59.21;103254.80;1875492;76;21087;-44
2023/02/10 09:18:50;;;;;;;29.82;14.55;;;;;;;-3.67;59.07;103250.58;1864299;76;21040;-48
2023/02/10 09:21:19;;;;;;;41.60;15.03;;;;;;;-3.52;58.95;103239.89;1873577;76;21055;-46
2023/02/10 09:23:48;;;;;;;33.95;14.05;;;;;;;-3.28;58.99;103233.48;1879584;76;21157;-44
2023/02/10 09:26:16;;;;;;;33.05;13.80;;;;;;;-3.14;59.07;103232.19;1881100;76;22284;-45
2023/02/10 09:28:45;;;;;;;46.88;17.62;;;;;;;-3.05;58.89;103228.38;1873520;76;21109;-51
2023/02/10 09:31:15;;;;;;;45.33;16.70;;;;;;;-2.67;58.38;103227.05;1891098;76;21135;-46
2023/02/10 09:33:45;;;;;;;31.97;12.18;;;;;;;-2.67;58.38;103227.05;1891340;76;21023;-44
2023/02/10 09:36:16;;;;;;;29.00;10.80;;;;;;;-2.48;58.51;103228.96;1891281;76;21544;-47
2023/02/10 09:38:45;;;;;;;32.23;13.00;;;;;;;-2.36;58.29;103222.78;1891416;75;21635;-45
2023/02/10 09:41:32;;;;;;;46.40;16.23;;;;;;;-2.04;57.94;103217.55;1891316;76;21067;-45
2023/02/10 09:44:16;;;;;;;66.75;10.20;;;;;;;-1.74;57.43;103213.08;1891327;76;21547;-47
2023/02/10 09:47:00;;;;;;;16.30;8.13;;;;;;;-1.35;56.49;103206.85;1891419;76;21093;-45
2023/02/10 09:49:44;;;;;;;;;;;;;;;-1.14;55.99;103201.88;1894158;76;21113;-49
2023/02/10 09:52:31;;;;;;;23.38;10.03;;;;;;;-0.74;55.93;103195.11;1891266;76;20115;-51
2023/02/10 09:55:00;;;;;;;42.25;14.40;;;;;;;-0.05;55.27;103191.38;1890902;75;21109;-49
2023/02/10 09:57:41;;;;;;;40.08;15.60;;;;;;;1.20;53.68;103181.38;1890623;76;21482;-46
2023/02/10 10:00:24;;;;;;;34.27;13.98;;;;;;;2.38;52.13;103185.70;1891382;76;21497;-50
2023/02/10 10:02:55;;;;;;;40.92;15.25;;;;;;;3.70;50.14;103180.25;1850555;76;21087;-49
2023/02/10 10:05:32;;;;;;;26.25;12.20;;;;;;;4.36;49.15;103181.62;1859554;77;21027;-47
2023/02/10 10:08:04;;;;;;;29.67;11.75;;;;;;;4.86;48.81;103177.19;1859687;77;21125;-47
2023/02/10 10:10:40;;;;;;;20.27;9.93;;;;;;;5.27;48.31;103175.07;1859751;77;21532;-47
2023/02/10 10:13:17;;;;;;;39.38;14.95;;;;;;;5.46;48.08;103181.16;1861489;76;22519;-46
2023/02/10 10:15:54;;;;;;;29.15;10.82;;;;;;;5.44;47.57;103180.66;1850605;77;21061;-46
2023/02/10 10:18:25;;;;;;;34.78;13.60;;;;;;;6.54;46.68;103177.56;1859355;77;21053;-48
2023/02/10 10:20:59;;;;;;;27.73;12.07;;;;;;;7.72;45.63;103167.88;1859627;77;21122;-51
2023/02/10 10:23:34;;;;;;;33.73;15.15;;;;;;;7.45;45.34;103160.59;1859871;76;21182;-48
2023/02/10 10:26:14;;;;;;;35.48;13.40;;;;;;;5.58;47.10;103160.92;1859742;77;21078;-46
2023/02/10 10:28:52;;;;;;;36.30;14.18;;;;;;;4.10;48.31;103168.33;1859842;77;21045;-47
2023/02/10 10:31:23;;;;;;;32.53;13.95;;;;;;;3.04;49.58;103163.13;1859832;77;21069;-47
2023/02/10 10:33:54;;;;;;;32.85;13.28;;;;;;;2.56;50.34;103164.61;1861495;76;21630;-50
2023/02/10 10:36:25;;;;;;;35.78;15.10;;;;;;;2.24;50.81;103164.41;1859875;77;21033;-49
2023/02/10 10:38:56;;;;;;;25.08;10.03;;;;;;;1.96;50.91;103166.90;1861916;76;21270;-51
2023/02/10 10:41:28;;;;;;;42.60;14.78;;;;;;;1.68;50.89;103163.31;1891558;76;21063;-50
2023/02/10 10:43:58;;;;;;;33.38;14.13;;;;;;;1.53;51.40;103164.50;1891542;75;21047;-51
2023/02/10 10:46:55;;;;;;;45.63;14.38;;;;;;;1.27;51.46;103162.63;1861516;76;21151;-50
2023/02/10 10:49:24;;;;;;;34.78;13.32;;;;;;;1.05;51.77;103154.03;1890280;76;21086;-47
2023/02/10 10:51:52;;;;;;;10.95;6.25;;;;;;;0.73;52.36;103159.22;1891587;76;21576;-47
2023/02/10 10:54:23;;;;;;;27.52;13.28;;;;;;;0.25;51.85;103168.03;1891499;76;21027;-47
2023/02/10 10:56:57;;;;;;;37.80;16.57;;;;;;;0.14;52.50;103171.04;1862135;76;21126;-45
2023/02/10 10:59:45;;;;;;;47.27;15.55;;;;;;;0.18;52.29;103167.78;1858789;77;21594;-44
2023/02/10 11:02:16;;;;;;;33.00;13.72;;;;;;;0.20;52.25;103162.64;1857877;77;21553;-50
2023/02/10 11:04:45;;;;;;;25.77;10.23;;;;;;;0.31;52.42;103165.27;1858609;77;21555;-49
2023/02/10 11:07:23;;;;;;;9.95;5.80;;;;;;;0.33;52.16;103161.45;1861516;76;21134;-47
2023/02/10 11:09:55;;;;;;;34.48;14.70;;;;;;;0.27;51.97;103156.02;1859711;76;21012;-44
2023/02/10 11:12:26;;;;;;;40.05;14.87;;;;;;;0.29;51.99;103153.96;1859750;77;21127;-46
2023/02/10 11:14:56;;;;;;;43.02;13.68;;;;;;;0.26;52.01;103155.15;1859788;77;21013;-45
2023/02/10 11:17:39;;;;;;;33.15;12.95;;;;;;;0.27;52.43;103141.35;1861297;76;21515;-47
2023/02/10 11:20:13;;;;;;;31.20;11.53;;;;;;;0.32;52.48;103141.14;1859905;77;21037;-52
2023/02/10 11:22:44;;;;;;;28.45;10.90;;;;;;;0.42;52.37;103138.93;1860466;76;21195;-47
2023/02/10 11:25:31;;;;;;;25.65;10.68;;;;;;;0.34;51.93;103138.62;1884234;76;21024;-47
2023/02/10 11:28:01;;;;;;;29.55;10.63;;;;;;;0.32;52.22;103141.14;1859642;77;21491;-48
2023/02/10 11:30:39;;;;;;;37.20;14.23;;;;;;;0.35;52.15;103128.70;1877168;76;21019;-50
2023/02/10 11:33:10;;;;;;;24.77;11.78;;;;;;;0.44;52.07;103135.98;1891486;76;21004;-49